Time;durP1;ratioP1;P1;durP2;ratioP2;P2;SDS_P1;SDS_P2;PMS_P1;PMS_P2;Temp;Humidity;BMP_temperature;BMP_pressure;BME280_temperature;BME280_humidity;BME280_pressure;Samples;Min_cycle;Max_cycle;Signal;HPM_P1;HPM_P2
2023/07/09 00:00:23;;;;;;;8.17;4.80;;;;;;;;;;5053871;28;20493;-54
2023/07/09 00:02:49;;;;;;;5.37;4.87;;;;;;;;;;5053489;28;20416;-52
2023/07/09 00:05:16;;;;;;;6.80;4.30;;;;;;;;;;5053535;28;20422;-53
2023/07/09 00:07:44;;;;;;;6.47;5.60;;;;;;;;;;5053624;28;20486;-54
2023/07/09 00:10:14;;;;;;;6.20;4.27;;;;;;;;;;5053573;28;20460;-51
2023/07/09 00:12:40;;;;;;;5.90;5.00;;;;;;;;;;5053639;28;20506;-51
2023/07/09 00:15:09;;;;;;;6.60;4.07;;;;;;;;;;5053337;28;20914;-51
2023/07/09 00:17:35;;;;;;;5.67;4.73;;;;;;;;;;5053071;28;20538;-53
2023/07/09 00:20:05;;;;;;;9.97;5.50;;;;;;;;;;5053141;28;20419;-53
2023/07/09 00:22:31;;;;;;;5.17;4.40;;;;;;;;;;5053177;28;20409;-52
2023/07/09 00:24:57;;;;;;;6.17;5.27;;;;;;;;;;5035220;28;20427;-51
2023/07/09 00:27:26;;;;;;;5.80;4.43;;;;;;;;;;5053156;28;20918;-51
2023/07/09 00:29:52;;;;;;;5.17;4.30;;;;;;;;;;5052808;28;20743;-50
2023/07/09 00:32:21;;;;;;;5.80;4.27;;;;;;;;;;5053351;28;20428;-49
2023/07/09 00:34:51;;;;;;;6.83;5.00;;;;;;;;;;5053179;28;20410;-49
2023/07/09 00:37:18;;;;;;;4.97;4.30;;;;;;;;;;5053068;28;20469;-49
2023/07/09 00:39:45;;;;;;;5.27;4.77;;;;;;;;;;5052837;28;20527;-49
2023/07/09 00:42:17;;;;;;;7.53;4.77;;;;;;;;;;5053544;28;20957;-47
2023/07/09 00:44:43;;;;;;;4.67;4.10;;;;;;;;;;5045595;28;20410;-47
2023/07/09 00:47:17;;;;;;;5.67;3.90;;;;;;;;;;5052916;28;20401;-47
2023/07/09 00:49:46;;;;;;;6.60;4.60;;;;;;;;;;5045358;28;20397;-52
2023/07/09 00:52:29;;;;;;;7.03;4.50;;;;;;;;;;5052778;28;20913;-51
2023/07/09 00:54:56;;;;;;;5.17;4.20;;;;;;;;;;5047392;28;20893;-53
2023/07/09 00:57:23;;;;;;;7.90;4.80;;;;;;;;;;5052702;28;20555;-54
2023/07/09 00:59:51;;;;;;;5.33;4.60;;;;;;;;;;5051829;28;20989;-54
2023/07/09 01:02:22;;;;;;;5.40;4.80;;;;;;;;;;5051999;28;20433;-50
2023/07/09 01:04:49;;;;;;;7.10;5.10;;;;;;;;;;5051929;28;20773;-52
2023/07/09 01:07:16;;;;;;;4.90;4.50;;;;;;;;;;5052445;28;20459;-49
2023/07/09 01:09:42;;;;;;;5.30;4.33;;;;;;;;;;5051556;28;20458;-49
2023/07/09 01:12:09;;;;;;;6.30;4.70;;;;;;;;;;5052424;28;20456;-50
2023/07/09 01:14:36;;;;;;;6.80;4.93;;;;;;;;;;5052159;28;20406;-50
2023/07/09 01:17:04;;;;;;;12.90;5.10;;;;;;;;;;5047465;28;20499;-49
2023/07/09 01:19:31;;;;;;;7.13;5.03;;;;;;;;;;5052263;28;20421;-49
2023/07/09 01:22:01;;;;;;;5.77;4.70;;;;;;;;;;5052005;28;20410;-52
2023/07/09 01:24:45;;;;;;;5.43;4.50;;;;;;;;;;5052148;28;20473;-49
2023/07/09 01:27:11;;;;;;;6.97;5.03;;;;;;;;;;5052005;28;20415;-51
2023/07/09 01:29:38;;;;;;;6.40;4.60;;;;;;;;;;5051953;28;20417;-52
2023/07/09 01:32:06;;;;;;;7.23;4.93;;;;;;;;;;5051940;28;20420;-51
2023/07/09 01:34:32;;;;;;;5.23;4.73;;;;;;;;;;5052369;28;20599;-51
2023/07/09 01:36:58;;;;;;;6.60;4.87;;;;;;;;;;5051871;28;20563;-49
2023/07/09 01:39:24;;;;;;;5.80;4.80;;;;;;;;;;5051847;28;20880;-49
2023/07/09 01:41:50;;;;;;;6.53;4.70;;;;;;;;;;5051656;28;20433;-52
2023/07/09 01:44:16;;;;;;;6.30;4.90;;;;;;;;;;5051639;28;20448;-49
2023/07/09 01:46:45;;;;;;;5.37;4.90;;;;;;;;;;5051859;28;20471;-49
2023/07/09 01:49:11;;;;;;;9.40;4.67;;;;;;;;;;5051671;28;20454;-52
2023/07/09 01:51:37;;;;;;;9.23;5.10;;;;;;;;;;5051690;28;20897;-49
2023/07/09 01:54:03;;;;;;;6.40;4.80;;;;;;;;;;5051569;28;20408;-49
2023/07/09 01:56:29;;;;;;;5.33;4.50;;;;;;;;;;5051702;28;20415;-49
2023/07/09 01:59:00;;;;;;;6.67;4.93;;;;;;;;;;5051466;28;20507;-48
2023/07/09 02:01:27;;;;;;;8.33;5.43;;;;;;;;;;5051405;28;20751;-49
2023/07/09 02:03:53;;;;;;;6.57;5.00;;;;;;;;;;5051554;28;20412;-49
2023/07/09 02:06:19;;;;;;;6.33;4.60;;;;;;;;;;5051447;28;20435;-49
2023/07/09 02:08:45;;;;;;;5.43;4.53;;;;;;;;;;5051465;28;20508;-49
2023/07/09 02:11:11;;;;;;;5.90;5.30;;;;;;;;;;5050339;28;20554;-49
2023/07/09 02:13:37;;;;;;;6.40;4.37;;;;;;;;;;5051516;28;20768;-49
2023/07/09 02:16:03;;;;;;;7.40;5.10;;;;;;;;;;5051588;28;20412;-50
2023/07/09 02:18:30;;;;;;;8.63;4.90;;;;;;;;;;5053389;28;20474;-49
2023/07/09 02:20:55;;;;;;;5.20;4.73;;;;;;;;;;5055434;28;20417;-49
2023/07/09 02:23:26;;;;;;;5.47;4.10;;;;;;;;;;5051250;28;20473;-51
2023/07/09 02:25:52;;;;;;;7.00;5.67;;;;;;;;;;5051433;28;20836;-49
2023/07/09 02:28:18;;;;;;;8.03;4.97;;;;;;;;;;5051241;28;20467;-51
2023/07/09 02:30:44;;;;;;;11.00;5.30;;;;;;;;;;5051029;28;20463;-49
2023/07/09 02:33:09;;;;;;;6.33;4.60;;;;;;;;;;5051254;28;20416;-49
2023/07/09 02:35:35;;;;;;;6.33;5.33;;;;;;;;;;5051205;28;20407;-49
2023/07/09 02:38:02;;;;;;;8.50;5.70;;;;;;;;;;5051341;28;20520;-49
2023/07/09 02:40:28;;;;;;;11.93;5.87;;;;;;;;;;5050955;28;20412;-49
2023/07/09 02:42:54;;;;;;;7.17;5.50;;;;;;;;;;5051202;28;20924;-49
2023/07/09 02:45:20;;;;;;;7.03;5.07;;;;;;;;;;5051042;28;20494;-49
2023/07/09 02:47:46;;;;;;;8.70;5.47;;;;;;;;;;5051117;28;20437;-49
2023/07/09 02:50:12;;;;;;;6.90;5.70;;;;;;;;;;5050872;28;20760;-49
2023/07/09 02:52:38;;;;;;;6.13;5.20;;;;;;;;;;5042579;28;20851;-49
2023/07/09 02:55:04;;;;;;;8.83;5.53;;;;;;;;;;5046633;28;20415;-49
2023/07/09 02:57:30;;;;;;;10.67;5.60;;;;;;;;;;5050882;28;20841;-51
2023/07/09 02:59:56;;;;;;;6.70;4.50;;;;;;;;;;5050905;28;20408;-49
2023/07/09 03:02:22;;;;;;;5.83;4.70;;;;;;;;;;5050974;28;20868;-51
2023/07/09 03:04:48;;;;;;;8.37;5.27;;;;;;;;;;5050810;28;20904;-52
2023/07/09 03:07:14;;;;;;;7.37;4.47;;;;;;;;;;5050749;28;20965;-49
2023/07/09 03:09:40;;;;;;;7.20;5.90;;;;;;;;;;5050688;28;20440;-49
2023/07/09 03:12:06;;;;;;;5.13;4.63;;;;;;;;;;5050940;28;20410;-49
2023/07/09 03:14:33;;;;;;;11.50;5.60;;;;;;;;;;5051212;28;20453;-49
2023/07/09 03:16:59;;;;;;;8.40;5.20;;;;;;;;;;5050793;28;20549;-49
2023/07/09 03:19:25;;;;;;;6.43;5.50;;;;;;;;;;5058776;28;20502;-49
2023/07/09 03:21:51;;;;;;;6.40;5.37;;;;;;;;;;5052084;28;20478;-49
2023/07/09 03:24:18;;;;;;;6.27;5.07;;;;;;;;;;5054266;28;20410;-49
2023/07/09 03:26:44;;;;;;;7.43;5.60;;;;;;;;;;5054451;28;20901;-51
2023/07/09 03:29:10;;;;;;;8.13;4.70;;;;;;;;;;5054300;28;20430;-50
2023/07/09 03:31:36;;;;;;;7.17;5.20;;;;;;;;;;5054116;28;20506;-52
2023/07/09 03:34:02;;;;;;;8.30;5.80;;;;;;;;;;5054177;28;20587;-49
2023/07/09 03:36:28;;;;;;;9.60;5.30;;;;;;;;;;5054236;28;20876;-49
2023/07/09 03:38:54;;;;;;;12.13;5.43;;;;;;;;;;5054199;28;20531;-51
2023/07/09 03:41:20;;;;;;;8.23;5.27;;;;;;;;;;5053643;28;20508;-49
2023/07/09 03:43:46;;;;;;;8.10;5.60;;;;;;;;;;5054060;28;20415;-49
2023/07/09 03:46:12;;;;;;;8.17;5.27;;;;;;;;;;5054155;28;20423;-49
2023/07/09 03:48:39;;;;;;;8.60;5.83;;;;;;;;;;5045821;28;20430;-49
2023/07/09 03:51:05;;;;;;;6.87;5.37;;;;;;;;;;5053838;28;20549;-49
2023/07/09 03:53:31;;;;;;;10.47;6.20;;;;;;;;;;5053788;28;20901;-49
2023/07/09 03:55:58;;;;;;;10.80;6.20;;;;;;;;;;5048237;28;20430;-49
2023/07/09 03:58:25;;;;;;;8.27;6.03;;;;;;;;;;5049163;28;20468;-49
2023/07/09 04:00:51;;;;;;;14.07;8.13;;;;;;;;;;5053465;28;20408;-49
2023/07/09 04:03:17;;;;;;;10.93;6.83;;;;;;;;;;5053377;28;20409;-49
2023/07/09 04:05:43;;;;;;;9.70;6.10;;;;;;;;;;5053844;28;20407;-51
2023/07/09 04:08:09;;;;;;;10.00;6.07;;;;;;;;;;5053730;28;20449;-51
2023/07/09 04:10:35;;;;;;;8.90;6.20;;;;;;;;;;5053273;28;20415;-51
2023/07/09 04:13:01;;;;;;;10.90;6.90;;;;;;;;;;5053609;28;20412;-49
2023/07/09 04:15:27;;;;;;;11.10;6.10;;;;;;;;;;5054177;28;20823;-49
2023/07/09 04:17:53;;;;;;;10.83;5.57;;;;;;;;;;5059378;28;20469;-49
2023/07/09 04:20:19;;;;;;;8.53;5.33;;;;;;;;;;5053211;28;20415;-49
2023/07/09 04:22:45;;;;;;;6.67;5.53;;;;;;;;;;5053333;28;20460;-49
2023/07/09 04:25:11;;;;;;;11.37;6.20;;;;;;;;;;5053311;28;20433;-49
2023/07/09 04:27:38;;;;;;;6.73;5.83;;;;;;;;;;5053241;28;20421;-49
2023/07/09 04:30:04;;;;;;;7.90;5.67;;;;;;;;;;5053022;28;20421;-50
2023/07/09 04:32:31;;;;;;;6.50;5.57;;;;;;;;;;5052775;28;20473;-51
2023/07/09 04:34:57;;;;;;;6.00;5.40;;;;;;;;;;5052648;28;20413;-49
2023/07/09 04:37:23;;;;;;;8.63;5.47;;;;;;;;;;5052894;28;20473;-49
2023/07/09 04:39:49;;;;;;;8.23;6.10;;;;;;;;;;5052843;28;20512;-49
2023/07/09 04:42:16;;;;;;;9.43;5.37;;;;;;;;;;5052881;28;20416;-52
2023/07/09 04:44:42;;;;;;;7.47;5.60;;;;;;;;;;5052849;28;20422;-49
2023/07/09 04:47:08;;;;;;;8.33;6.23;;;;;;;;;;5052892;28;20908;-50
2023/07/09 04:49:34;;;;;;;11.77;6.57;;;;;;;;;;5052791;28;20953;-50
2023/07/09 04:52:00;;;;;;;12.20;6.87;;;;;;;;;;5052668;28;20441;-51
2023/07/09 04:54:27;;;;;;;9.73;6.47;;;;;;;;;;5052588;28;20509;-51
2023/07/09 04:56:53;;;;;;;7.70;6.70;;;;;;;;;;5052703;28;20496;-49
2023/07/09 04:59:19;;;;;;;17.27;8.33;;;;;;;;;;5052550;28;20531;-50
2023/07/09 05:01:45;;;;;;;20.83;10.60;;;;;;;;;;5052406;28;20398;-49
2023/07/09 05:04:11;;;;;;;22.50;12.20;;;;;;;;;;5053015;28;20410;-50
2023/07/09 05:06:38;;;;;;;26.67;12.30;;;;;;;;;;5052474;28;20426;-49
2023/07/09 05:09:04;;;;;;;25.20;13.10;;;;;;;;;;5052370;28;20469;-49
2023/07/09 05:11:30;;;;;;;32.73;11.37;;;;;;;;;;5052064;28;20462;-50
2023/07/09 05:13:56;;;;;;;23.10;10.10;;;;;;;;;;5052228;28;20758;-51
2023/07/09 05:16:22;;;;;;;16.43;10.63;;;;;;;;;;5052197;28;20502;-50
2023/07/09 05:18:48;;;;;;;19.00;9.30;;;;;;;;;;5052328;28;20494;-51
2023/07/09 05:21:15;;;;;;;14.97;8.87;;;;;;;;;;5052184;28;20517;-49
2023/07/09 05:23:41;;;;;;;14.40;7.50;;;;;;;;;;5052219;28;20448;-49
2023/07/09 05:26:07;;;;;;;8.27;7.23;;;;;;;;;;5052264;28;20440;-49
2023/07/09 05:28:33;;;;;;;8.33;6.47;;;;;;;;;;5051817;28;20848;-51
2023/07/09 05:30:59;;;;;;;13.73;7.80;;;;;;;;;;5051909;28;20402;-52
2023/07/09 05:33:25;;;;;;;10.47;8.43;;;;;;;;;;5051963;28;20412;-50
2023/07/09 05:35:51;;;;;;;18.97;8.53;;;;;;;;;;5051986;28;20846;-50
2023/07/09 05:38:17;;;;;;;10.07;7.60;;;;;;;;;;5051735;28;20460;-49
2023/07/09 05:40:43;;;;;;;10.70;7.80;;;;;;;;;;5052115;28;20760;-51
2023/07/09 05:43:10;;;;;;;20.10;8.50;;;;;;;;;;5051717;28;20403;-49
2023/07/09 05:45:36;;;;;;;13.40;6.67;;;;;;;;;;5051628;28;20533;-49
2023/07/09 05:48:02;;;;;;;6.87;5.67;;;;;;;;;;5051767;28;20441;-50
2023/07/09 05:50:28;;;;;;;9.20;5.90;;;;;;;;;;5051535;28;20419;-51
2023/07/09 05:52:55;;;;;;;10.60;5.73;;;;;;;;;;5051586;28;20975;-50
2023/07/09 05:55:21;;;;;;;9.30;5.40;;;;;;;;;;5051540;28;20422;-50
2023/07/09 05:57:47;;;;;;;6.40;5.20;;;;;;;;;;5051358;28;20498;-50
2023/07/09 06:00:13;;;;;;;7.53;5.67;;;;;;;;;;5051469;28;20439;-52
2023/07/09 06:02:39;;;;;;;16.20;6.27;;;;;;;;;;5051573;28;20411;-51
2023/07/09 06:05:09;;;;;;;11.20;6.63;;;;;;;;;;5051415;28;20413;-52
2023/07/09 06:07:35;;;;;;;7.30;6.20;;;;;;;;;;5051262;28;20451;-49
2023/07/09 06:10:01;;;;;;;6.60;5.53;;;;;;;;;;5051259;28;20415;-49
2023/07/09 06:12:26;;;;;;;10.70;6.60;;;;;;;;;;5051287;28;20415;-50
2023/07/09 06:14:53;;;;;;;13.97;5.50;;;;;;;;;;5051464;28;20421;-49
2023/07/09 06:17:19;;;;;;;8.43;5.70;;;;;;;;;;5050823;28;20534;-49
2023/07/09 06:19:44;;;;;;;10.23;6.90;;;;;;;;;;5051308;28;20499;-49
2023/07/09 06:22:10;;;;;;;6.50;5.80;;;;;;;;;;5051516;28;20410;-49
2023/07/09 06:24:36;;;;;;;7.30;6.30;;;;;;;;;;5051271;28;20444;-51
2023/07/09 06:27:02;;;;;;;8.43;6.23;;;;;;;;;;5051169;28;20412;-49
2023/07/09 06:29:28;;;;;;;6.70;6.00;;;;;;;;;;5051355;28;20447;-48
2023/07/09 06:31:54;;;;;;;13.13;6.90;;;;;;;;;;5051328;28;20465;-49
2023/07/09 06:34:20;;;;;;;8.03;6.20;;;;;;;;;;5051234;28;20430;-49
2023/07/09 06:36:46;;;;;;;6.97;6.27;;;;;;;;;;5050493;28;20460;-49
2023/07/09 06:39:12;;;;;;;6.40;5.80;;;;;;;;;;5056786;28;20428;-49
2023/07/09 06:41:41;;;;;;;6.57;5.80;;;;;;;;;;5048136;28;20421;-50
2023/07/09 06:44:07;;;;;;;8.80;7.37;;;;;;;;;;5051076;28;20513;-49
2023/07/09 06:46:33;;;;;;;8.53;5.90;;;;;;;;;;5051182;28;20402;-49
2023/07/09 06:49:00;;;;;;;6.67;5.83;;;;;;;;;;5051114;28;20460;-49
2023/07/09 06:51:25;;;;;;;6.37;5.77;;;;;;;;;;5050902;28;20407;-49
2023/07/09 06:53:51;;;;;;;6.53;5.23;;;;;;;;;;5049756;28;20551;-51
2023/07/09 06:56:18;;;;;;;7.10;6.27;;;;;;;;;;5051472;28;20400;-49
2023/07/09 06:58:45;;;;;;;8.73;6.37;;;;;;;;;;5055022;28;20469;-49
2023/07/09 07:01:12;;;;;;;8.67;6.30;;;;;;;;;;5054601;28;20938;-50
2023/07/09 07:03:38;;;;;;;9.23;6.77;;;;;;;;;;5048683;28;20423;-50
2023/07/09 07:06:06;;;;;;;12.60;7.27;;;;;;;;;;5054640;28;20413;-49
2023/07/09 07:08:32;;;;;;;6.40;5.43;;;;;;;;;;5053956;28;20466;-54
2023/07/09 07:11:02;;;;;;;6.67;6.07;;;;;;;;;;5054607;28;20417;-52
2023/07/09 07:13:39;;;;;;;7.50;5.47;;;;;;;;;;5054641;28;20416;-53
2023/07/09 07:16:07;;;;;;;12.43;6.13;;;;;;;;;;5054675;28;20483;-54
2023/07/09 07:18:33;;;;;;;7.73;6.50;;;;;;;;;;5054501;28;20461;-54
2023/07/09 07:20:59;;;;;;;10.33;7.47;;;;;;;;;;5054078;28;20409;-52
2023/07/09 07:23:25;;;;;;;8.10;5.87;;;;;;;;;;5054472;28;20798;-54
2023/07/09 07:25:51;;;;;;;9.67;6.43;;;;;;;;;;5054635;28;20962;-53
2023/07/09 07:28:18;;;;;;;8.73;6.07;;;;;;;;;;5054282;28;20515;-53
2023/07/09 07:30:44;;;;;;;11.43;6.37;;;;;;;;;;5054099;28;20505;-54
2023/07/09 07:33:10;;;;;;;7.50;6.00;;;;;;;;;;5054340;28;20484;-54
2023/07/09 07:35:37;;;;;;;9.13;6.27;;;;;;;;;;5054009;28;20408;-54
2023/07/09 07:38:03;;;;;;;7.77;5.73;;;;;;;;;;5054199;28;20958;-54
2023/07/09 07:40:29;;;;;;;9.13;6.40;;;;;;;;;;5054072;28;20445;-54
2023/07/09 07:42:55;;;;;;;7.50;6.20;;;;;;;;;;5054198;28;20406;-54
2023/07/09 07:45:21;;;;;;;7.93;6.43;;;;;;;;;;5054144;28;20805;-54
2023/07/09 07:47:47;;;;;;;6.17;5.57;;;;;;;;;;5054005;28;20437;-53
2023/07/09 07:50:14;;;;;;;8.20;5.80;;;;;;;;;;5053569;28;20424;-54
2023/07/09 07:52:39;;;;;;;8.87;6.23;;;;;;;;;;5054140;28;20414;-55
2023/07/09 07:55:06;;;;;;;7.30;6.60;;;;;;;;;;5053932;28;20413;-54
2023/07/09 07:57:33;;;;;;;8.03;6.37;;;;;;;;;;5053802;28;20504;-54
2023/07/09 07:59:59;;;;;;;11.70;6.83;;;;;;;;;;5053629;28;20421;-54
2023/07/09 08:02:25;;;;;;;11.03;6.87;;;;;;;;;;5053718;28;20421;-55
2023/07/09 08:04:51;;;;;;;9.70;6.83;;;;;;;;;;5053645;28;20762;-55
2023/07/09 08:07:18;;;;;;;8.00;6.50;;;;;;;;;;5053028;28;20480;-53
2023/07/09 08:09:44;;;;;;;6.97;6.30;;;;;;;;;;5052581;28;20405;-52
2023/07/09 08:12:11;;;;;;;10.43;7.47;;;;;;;;;;5053665;28;20413;-52
2023/07/09 08:14:37;;;;;;;8.63;6.10;;;;;;;;;;5045342;28;20409;-54
2023/07/09 08:17:04;;;;;;;7.83;7.00;;;;;;;;;;5053415;28;20461;-54
2023/07/09 08:19:31;;;;;;;9.93;7.07;;;;;;;;;;5053159;28;20452;-53
2023/07/09 08:21:57;;;;;;;8.00;6.37;;;;;;;;;;5053176;28;20409;-54
2023/07/09 08:24:23;;;;;;;8.40;6.40;;;;;;;;;;5053381;28;20765;-53
2023/07/09 08:26:49;;;;;;;7.67;6.70;;;;;;;;;;5052067;28;20926;-54
2023/07/09 08:29:15;;;;;;;8.30;6.57;;;;;;;;;;5053231;28;20461;-51
2023/07/09 08:31:41;;;;;;;9.83;7.00;;;;;;;;;;5053134;28;20786;-54
2023/07/09 08:34:07;;;;;;;8.27;7.00;;;;;;;;;;5053059;28;20739;-53
2023/07/09 08:36:34;;;;;;;7.77;7.03;;;;;;;;;;5053080;28;20462;-54
2023/07/09 08:39:02;;;;;;;8.63;6.30;;;;;;;;;;5053272;28;20797;-54
2023/07/09 08:41:43;;;;;;;7.30;6.10;;;;;;;;;;5052823;28;20406;-52
2023/07/09 08:44:34;;;;;;;10.83;6.37;;;;;;;;;;5052972;28;20410;-53
2023/07/09 08:47:03;;;;;;;6.13;5.40;;;;;;;;;;5052921;28;20500;-53
2023/07/09 08:49:41;;;;;;;7.13;5.63;;;;;;;;;;5052859;28;20466;-53
2023/07/09 08:52:26;;;;;;;7.33;5.53;;;;;;;;;;5052907;28;20929;-54
2023/07/09 08:54:52;;;;;;;7.63;5.73;;;;;;;;;;5052541;28;20467;-52
2023/07/09 08:57:23;;;;;;;6.77;6.17;;;;;;;;;;5052693;28;20551;-54
2023/07/09 08:59:50;;;;;;;9.23;6.40;;;;;;;;;;5052486;28;20421;-53
2023/07/09 09:02:32;;;;;;;6.63;5.10;;;;;;;;;;5052619;28;20405;-54
2023/07/09 09:04:58;;;;;;;7.87;5.70;;;;;;;;;;5047116;28;20456;-54
2023/07/09 09:07:32;;;;;;;9.10;6.00;;;;;;;;;;5052190;28;20453;-54
2023/07/09 09:10:00;;;;;;;8.30;5.40;;;;;;;;;;5052310;28;20227;-53
2023/07/09 09:12:29;;;;;;;7.80;5.40;;;;;;;;;;5052435;28;20417;-54
2023/07/09 09:14:59;;;;;;;9.90;6.10;;;;;;;;;;5052669;28;20417;-54
2023/07/09 09:17:28;;;;;;;6.67;5.73;;;;;;;;;;5052049;28;20507;-54
2023/07/09 09:19:59;;;;;;;6.20;5.60;;;;;;;;;;5059634;28;20409;-55
2023/07/09 09:22:29;;;;;;;6.70;5.63;;;;;;;;;;5052177;28;20514;-51
2023/07/09 09:25:04;;;;;;;7.30;5.40;;;;;;;;;;5052167;28;20883;-54
2023/07/09 09:27:30;;;;;;;8.33;5.40;;;;;;;;;;5052177;28;20827;-54
2023/07/09 09:29:56;;;;;;;8.70;5.40;;;;;;;;;;5051869;28;20418;-53
2023/07/09 09:32:27;;;;;;;6.73;5.40;;;;;;;;;;5051856;28;20750;-51
2023/07/09 09:34:53;;;;;;;7.30;5.40;;;;;;;;;;5052026;28;20667;-53
2023/07/09 09:37:25;;;;;;;7.40;5.67;;;;;;;;;;5051974;28;20460;-53
2023/07/09 09:39:51;;;;;;;6.93;6.10;;;;;;;;;;5051979;28;20420;-51
2023/07/09 09:42:17;;;;;;;5.67;4.80;;;;;;;;;;5051790;28;20414;-53
2023/07/09 09:44:46;;;;;;;8.30;5.40;;;;;;;;;;5051680;28;20807;-54
2023/07/09 09:47:13;;;;;;;6.00;4.73;;;;;;;;;;5050625;28;20892;-52
2023/07/09 09:49:39;;;;;;;9.03;5.60;;;;;;;;;;5043741;28;20455;-53
2023/07/09 09:52:11;;;;;;;6.33;5.73;;;;;;;;;;5051721;28;20405;-51
2023/07/09 09:54:40;;;;;;;5.73;5.20;;;;;;;;;;5056645;28;20792;-53
2023/07/09 09:57:16;;;;;;;5.93;5.47;;;;;;;;;;5051547;28;20457;-51
2023/07/09 09:59:42;;;;;;;7.20;5.30;;;;;;;;;;5039420;28;20425;-51
2023/07/09 10:02:19;;;;;;;7.00;5.50;;;;;;;;;;5052621;28;20416;-53
2023/07/09 10:04:45;;;;;;;6.80;4.83;;;;;;;;;;5044132;28;20525;-52
2023/07/09 10:07:15;;;;;;;8.57;5.90;;;;;;;;;;5051416;28;20482;-51
2023/07/09 10:09:49;;;;;;;6.83;5.40;;;;;;;;;;5044160;28;20409;-51
2023/07/09 10:12:35;;;;;;;6.17;4.87;;;;;;;;;;5051656;28;20886;-51
2023/07/09 10:15:01;;;;;;;9.43;5.30;;;;;;;;;;5051529;28;20401;-52
2023/07/09 10:17:36;;;;;;;5.50;4.90;;;;;;;;;;5051471;28;20457;-53
2023/07/09 10:20:02;;;;;;;6.70;5.97;;;;;;;;;;5051265;28;20242;-50
2023/07/09 10:22:48;;;;;;;5.53;5.03;;;;;;;;;;5051213;28;20432;-50
2023/07/09 10:25:20;;;;;;;6.10;5.37;;;;;;;;;;5050892;28;20444;-51
2023/07/09 10:27:58;;;;;;;5.40;4.90;;;;;;;;;;5051248;28;20437;-50
2023/07/09 10:30:36;;;;;;;11.47;5.23;;;;;;;;;;5051001;28;20420;-51
2023/07/09 10:33:08;;;;;;;8.60;5.03;;;;;;;;;;5053487;28;20894;-51
2023/07/09 10:35:55;;;;;;;5.90;5.40;;;;;;;;;;5054181;28;20559;-50
2023/07/09 10:38:34;;;;;;;5.60;5.03;;;;;;;;;;5055301;28;20475;-50
2023/07/09 10:41:03;;;;;;;5.50;4.87;;;;;;;;;;5054936;28;20420;-50
2023/07/09 10:43:32;;;;;;;5.63;4.93;;;;;;;;;;5055197;28;20412;-50
2023/07/09 10:46:00;;;;;;;5.20;4.77;;;;;;;;;;5055135;28;20487;-50
2023/07/09 10:48:32;;;;;;;8.10;4.73;;;;;;;;;;5053305;28;20490;-50
2023/07/09 10:50:59;;;;;;;8.10;4.43;;;;;;;;;;5034897;28;20914;-50
2023/07/09 10:53:39;;;;;;;6.43;5.20;;;;;;;;;;5050079;28;20473;-48
2023/07/09 10:56:12;;;;;;;8.53;5.03;;;;;;;;;;5054865;28;20424;-49
2023/07/09 10:58:42;;;;;;;6.50;4.40;;;;;;;;;;5054878;28;20461;-50
2023/07/09 11:01:12;;;;;;;6.40;4.33;;;;;;;;;;5054702;28;20961;-50
2023/07/09 11:03:40;;;;;;;5.30;4.63;;;;;;;;;;5054740;28;20436;-50
2023/07/09 11:06:13;;;;;;;8.53;4.50;;;;;;;;;;5054451;28;20413;-50
2023/07/09 11:08:40;;;;;;;8.97;4.60;;;;;;;;;;5054938;28;20425;-50
2023/07/09 11:11:10;;;;;;;4.30;4.00;;;;;;;;;;5053623;28;20412;-48
2023/07/09 11:13:43;;;;;;;7.47;3.83;;;;;;;;;;5054419;28;20409;-50
2023/07/09 11:16:12;;;;;;;4.80;4.03;;;;;;;;;;5054609;28;20420;-50
2023/07/09 11:18:38;;;;;;;9.70;3.87;;;;;;;;;;5054245;28;20563;-50
2023/07/09 11:21:05;;;;;;;5.63;4.30;;;;;;;;;;5054335;28;20421;-50
2023/07/09 11:23:51;;;;;;;6.10;4.30;;;;;;;;;;5054575;28;20179;-49
2023/07/09 11:26:28;;;;;;;4.37;4.00;;;;;;;;;;5054440;28;20416;-48
2023/07/09 11:29:14;;;;;;;5.00;3.83;;;;;;;;;;5054064;28;20462;-48
2023/07/09 11:31:41;;;;;;;5.27;4.10;;;;;;;;;;5054167;28;20428;-50
2023/07/09 11:34:07;;;;;;;6.13;4.13;;;;;;;;;;5052869;28;20441;-48
2023/07/09 11:36:34;;;;;;;4.30;3.63;;;;;;;;;;5036362;28;20420;-50
2023/07/09 11:39:03;;;;;;;4.47;3.63;;;;;;;;;;5036429;28;20571;-46
2023/07/09 11:41:39;;;;;;;6.40;3.73;;;;;;;;;;5053153;28;20785;-48
2023/07/09 11:44:12;;;;;;;4.27;3.70;;;;;;;;;;5053858;28;20425;-50
2023/07/09 11:46:45;;;;;;;6.03;3.83;;;;;;;;;;5054112;28;20503;-50
2023/07/09 11:49:12;;;;;;;5.80;3.27;;;;;;;;;;5054069;28;20736;-51
2023/07/09 11:51:40;;;;;;;4.87;3.53;;;;;;;;;;5053733;28;20423;-48
2023/07/09 11:54:11;;;;;;;8.83;3.97;;;;;;;;;;5053630;28;20421;-48
2023/07/09 11:56:38;;;;;;;11.10;4.03;;;;;;;;;;5053946;28;20469;-50
2023/07/09 11:59:04;;;;;;;4.30;3.90;;;;;;;;;;5053660;28;20463;-49
2023/07/09 12:01:39;;;;;;;5.00;3.83;;;;;;;;;;5053621;28;20422;-47
2023/07/09 12:04:05;;;;;;;4.50;3.97;;;;;;;;;;5053731;28;20400;-49
2023/07/09 12:06:33;;;;;;;5.20;4.23;;;;;;;;;;5053307;28;20520;-49
2023/07/09 12:08:59;;;;;;;4.23;3.80;;;;;;;;;;5053814;28;20877;-47
2023/07/09 12:11:30;;;;;;;6.97;3.90;;;;;;;;;;5053382;28;20926;-49
2023/07/09 12:14:09;;;;;;;4.33;3.93;;;;;;;;;;5053758;28;20441;-49
2023/07/09 12:16:39;;;;;;;6.27;3.70;;;;;;;;;;5049576;28;20409;-49
2023/07/09 12:19:06;;;;;;;7.50;3.87;;;;;;;;;;5055112;28;20429;-49
2023/07/09 12:21:35;;;;;;;4.67;4.27;;;;;;;;;;5052965;28;20888;-47
2023/07/09 12:24:02;;;;;;;4.10;3.70;;;;;;;;;;5053090;28;20393;-47
2023/07/09 12:26:31;;;;;;;5.90;3.73;;;;;;;;;;5053085;28;20903;-48
2023/07/09 12:28:58;;;;;;;5.60;3.33;;;;;;;;;;5053002;28;20997;-49
2023/07/09 12:31:31;;;;;;;4.73;3.90;;;;;;;;;;5052690;28;20410;-49
2023/07/09 12:33:57;;;;;;;7.47;3.80;;;;;;;;;;5052819;28;20488;-50
2023/07/09 12:36:27;;;;;;;4.87;3.90;;;;;;;;;;5053154;28;20491;-47
2023/07/09 12:38:56;;;;;;;5.43;3.50;;;;;;;;;;5053084;28;21008;-50
2023/07/09 12:41:41;;;;;;;4.30;4.00;;;;;;;;;;5052675;28;20420;-50
2023/07/09 12:44:18;;;;;;;4.67;4.07;;;;;;;;;;5052567;28;20410;-50
2023/07/09 12:46:44;;;;;;;6.00;3.70;;;;;;;;;;5045770;28;20409;-50
2023/07/09 12:49:20;;;;;;;6.43;3.73;;;;;;;;;;5052929;28;20421;-50
2023/07/09 12:51:47;;;;;;;3.70;3.40;;;;;;;;;;5048474;28;20394;-50
2023/07/09 12:54:15;;;;;;;4.30;3.90;;;;;;;;;;5052621;28;20763;-48
2023/07/09 12:56:41;;;;;;;6.67;4.03;;;;;;;;;;5053703;28;20410;-51
2023/07/09 12:59:20;;;;;;;6.90;4.03;;;;;;;;;;5052765;28;20816;-51
2023/07/09 13:02:09;;;;;;;5.63;4.30;;;;;;;;;;5045467;28;20514;-50
2023/07/09 13:04:39;;;;;;;6.20;3.77;;;;;;;;;;5044182;28;20433;-50
2023/07/09 13:07:05;;;;;;;5.83;4.10;;;;;;;;;;5052195;28;20425;-49
2023/07/09 13:09:32;;;;;;;5.93;4.30;;;;;;;;;;5052450;28;20431;-49
2023/07/09 13:11:58;;;;;;;7.30;4.07;;;;;;;;;;5051259;28;20895;-49
2023/07/09 13:14:26;;;;;;;4.40;4.00;;;;;;;;;;5052646;28;20417;-50
2023/07/09 13:16:52;;;;;;;4.13;3.70;;;;;;;;;;5052199;28;20616;-48
2023/07/09 13:19:18;;;;;;;5.60;4.40;;;;;;;;;;5043078;28;20955;-51
2023/07/09 13:21:45;;;;;;;4.03;3.63;;;;;;;;;;5045609;28;20417;-49
2023/07/09 13:24:37;;;;;;;4.80;4.40;;;;;;;;;;5052328;28;20460;-49
2023/07/09 13:27:03;;;;;;;4.50;4.03;;;;;;;;;;5048255;28;20475;-50
2023/07/09 13:29:29;;;;;;;4.40;4.00;;;;;;;;;;5052116;28;20486;-49
2023/07/09 13:31:57;;;;;;;4.80;4.30;;;;;;;;;;5052176;28;20903;-50
2023/07/09 13:34:24;;;;;;;7.03;4.17;;;;;;;;;;5051959;28;20898;-47
2023/07/09 13:36:50;;;;;;;6.27;4.10;;;;;;;;;;5051925;28;20891;-51
2023/07/09 13:39:16;;;;;;;5.47;4.97;;;;;;;;;;5051848;28;20437;-49
2023/07/09 13:41:47;;;;;;;4.97;3.60;;;;;;;;;;5051202;28;20417;-49
2023/07/09 13:44:14;;;;;;;11.83;4.90;;;;;;;;;;5049385;28;20417;-50
2023/07/09 13:46:40;;;;;;;4.70;4.30;;;;;;;;;;5050866;28;20462;-48
2023/07/09 13:49:14;;;;;;;4.90;4.20;;;;;;;;;;5044288;28;20433;-49
2023/07/09 13:51:40;;;;;;;4.83;4.20;;;;;;;;;;5043451;28;20891;-49
2023/07/09 13:54:14;;;;;;;6.40;5.10;;;;;;;;;;5051413;28;20412;-48
2023/07/09 13:56:40;;;;;;;6.23;4.40;;;;;;;;;;5043656;28;20397;-50
2023/07/09 13:59:12;;;;;;;4.40;3.90;;;;;;;;;;5051077;28;20457;-50
2023/07/09 14:01:37;;;;;;;4.20;3.77;;;;;;;;;;5051342;28;20410;-50
2023/07/09 14:04:03;;;;;;;4.50;4.10;;;;;;;;;;5050526;28;20753;-49
2023/07/09 14:06:29;;;;;;;5.87;4.57;;;;;;;;;;5050035;28;20422;-49
2023/07/09 14:08:55;;;;;;;4.70;4.40;;;;;;;;;;5050364;28;20433;-48
2023/07/09 14:11:23;;;;;;;5.30;4.90;;;;;;;;;;5050620;28;20417;-49
2023/07/09 14:13:49;;;;;;;5.80;4.30;;;;;;;;;;5049880;28;20253;-49
2023/07/09 14:16:15;;;;;;;5.87;5.10;;;;;;;;;;5051333;28;20413;-49
2023/07/09 14:18:42;;;;;;;4.83;4.20;;;;;;;;;;5051160;28;20682;-50
2023/07/09 14:21:13;;;;;;;5.27;4.87;;;;;;;;;;5051116;28;20478;-50
2023/07/09 14:23:39;;;;;;;5.10;4.70;;;;;;;;;;5047398;28;20413;-48
2023/07/09 14:26:05;;;;;;;4.57;4.13;;;;;;;;;;5049954;28;20413;-49
2023/07/09 14:28:31;;;;;;;5.67;3.83;;;;;;;;;;5051303;28;20440;-49
2023/07/09 14:30:57;;;;;;;8.63;4.33;;;;;;;;;;5051114;28;20423;-49
2023/07/09 14:33:25;;;;;;;8.80;5.00;;;;;;;;;;5051447;28;20807;-51
2023/07/09 14:35:51;;;;;;;6.03;4.07;;;;;;;;;;5050888;28;20214;-51
2023/07/09 14:38:21;;;;;;;5.20;4.80;;;;;;;;;;5050977;28;20966;-52
2023/07/09 14:40:48;;;;;;;6.40;4.70;;;;;;;;;;5049962;28;20443;-51
2023/07/09 14:43:14;;;;;;;5.47;4.53;;;;;;;;;;5050948;28;20405;-52
2023/07/09 14:45:40;;;;;;;5.77;5.27;;;;;;;;;;5051054;28;20905;-52